KOFK

Norfolk Regional / Karl Stefan Memorial Field Airport

Norfolk, Nebraska, USA
METAR KOFK 181256Z AUTO 09011KT 10SM OVC009 M06/M08 A2990 RMK AO2 SLP147 T10611078
Observed Flight Rules
Jan-18 @ 12:56 UTC (51 minutes ago) Instrument Flight Rules
Wind Visibility Clouds
90° at 11 knots 10 miles
  • Overcast at 900' AGL
Temperatures Readings
Current -6°C / 21°F
Dewpoint -8°C / 18°F
Humidity 86%
Altimeter 29.9" Hg
Pressure 1014.7 hPa
Elevation 470
METAR KOFK 181256Z AUTO 09011KT 10SM OVC009 M06/M08 A2990 RMK AO2 SLP147 T10611078
Observed Flight Rules
Jan-18 @ 12:56 UTC
(51 minutes ago)
IFR
Wind Visibility
90° at 11 knots 10 miles
Clouds
  • Overcast at 900' AGL
Temperature Dewpoint
-6°C / 21°F -8°C / 18°F
Humidity Altimeter Pressure
86% 29.9" Hg 1014.7 hPa